sensor_id;sensor_type;location;lat;lon;timestamp;P1;durP1;ratioP1;P2;durP2;ratioP2
39782;SDS011;25462;51.164;17.100;2022-07-06T01:05:53;10.50;;;9.30;;
39782;SDS011;25462;51.164;17.100;2022-07-06T01:43:46;15.70;;;14.30;;
39782;SDS011;25462;51.164;17.100;2022-07-06T03:06:18;11.70;;;10.50;;
39782;SDS011;25462;51.164;17.100;2022-07-06T04:02:02;16.60;;;11.00;;
39782;SDS011;25462;51.164;17.100;2022-07-06T04:07:15;13.40;;;10.50;;
39782;SDS011;25462;51.164;17.100;2022-07-06T04:12:34;10.50;;;9.40;;
39782;SDS011;25462;51.164;17.100;2022-07-06T04:24:07;12.40;;;7.90;;
39782;SDS011;25462;51.164;17.100;2022-07-06T04:29:13;12.60;;;7.90;;
39782;SDS011;25462;51.164;17.100;2022-07-06T04:34:28;11.20;;;8.00;;
39782;SDS011;25462;51.164;17.100;2022-07-06T04:40:03;9.60;;;7.10;;
39782;SDS011;25462;51.164;17.100;2022-07-06T04:46:21;11.10;;;8.20;;
39782;SDS011;25462;51.164;17.100;2022-07-06T04:51:58;7.80;;;6.40;;
39782;SDS011;25462;51.164;17.100;2022-07-06T05:15:22;6.00;;;4.80;;
39782;SDS011;25462;51.164;17.100;2022-07-06T05:20:37;5.30;;;4.90;;
39782;SDS011;25462;51.164;17.100;2022-07-06T05:38:58;4.70;;;4.30;;
39782;SDS011;25462;51.164;17.100;2022-07-06T05:44:09;6.70;;;5.30;;
39782;SDS011;25462;51.164;17.100;2022-07-06T05:49:19;5.40;;;4.90;;
39782;SDS011;25462;51.164;17.100;2022-07-06T05:54:58;9.40;;;7.90;;
39782;SDS011;25462;51.164;17.100;2022-07-06T06:00:03;10.60;;;8.70;;
39782;SDS011;25462;51.164;17.100;2022-07-06T06:05:18;21.20;;;15.00;;
39782;SDS011;25462;51.164;17.100;2022-07-06T06:16:40;5.70;;;5.20;;
39782;SDS011;25462;51.164;17.100;2022-07-06T06:21:59;6.00;;;5.00;;
39782;SDS011;25462;51.164;17.100;2022-07-06T06:27:42;7.70;;;4.30;;
39782;SDS011;25462;51.164;17.100;2022-07-06T06:32:46;5.60;;;3.90;;
39782;SDS011;25462;51.164;17.100;2022-07-06T06:43:44;5.10;;;4.20;;
39782;SDS011;25462;51.164;17.100;2022-07-06T06:48:56;6.50;;;4.70;;
39782;SDS011;25462;51.164;17.100;2022-07-06T07:26:38;6.30;;;2.80;;
39782;SDS011;25462;51.164;17.100;2022-07-06T07:32:11;2.50;;;2.30;;
39782;SDS011;25462;51.164;17.100;2022-07-06T07:50:42;2.40;;;2.10;;
39782;SDS011;25462;51.164;17.100;2022-07-06T08:10:00;4.50;;;2.10;;
39782;SDS011;25462;51.164;17.100;2022-07-06T08:22:55;3.60;;;2.00;;
39782;SDS011;25462;51.164;17.100;2022-07-06T08:28:01;1.70;;;1.60;;
39782;SDS011;25462;51.164;17.100;2022-07-06T08:33:16;1.60;;;1.50;;
39782;SDS011;25462;51.164;17.100;2022-07-06T08:38:22;2.40;;;1.80;;
39782;SDS011;25462;51.164;17.100;2022-07-06T08:43:37;1.80;;;1.70;;
39782;SDS011;25462;51.164;17.100;2022-07-06T08:48:43;1.70;;;1.50;;
39782;SDS011;25462;51.164;17.100;2022-07-06T08:53:49;2.50;;;1.70;;
39782;SDS011;25462;51.164;17.100;2022-07-06T08:58:58;3.20;;;1.60;;
39782;SDS011;25462;51.164;17.100;2022-07-06T09:04:06;1.40;;;1.30;;
39782;SDS011;25462;51.164;17.100;2022-07-06T09:09:24;2.00;;;1.80;;
39782;SDS011;25462;51.164;17.100;2022-07-06T09:14:31;2.60;;;1.80;;
39782;SDS011;25462;51.164;17.100;2022-07-06T09:19:58;2.00;;;1.70;;
39782;SDS011;25462;51.164;17.100;2022-07-06T09:38:25;2.50;;;2.30;;
39782;SDS011;25462;51.164;17.100;2022-07-06T09:43:35;3.00;;;2.00;;
39782;SDS011;25462;51.164;17.100;2022-07-06T09:48:45;3.30;;;2.80;;
39782;SDS011;25462;51.164;17.100;2022-07-06T10:06:32;1.70;;;1.60;;
39782;SDS011;25462;51.164;17.100;2022-07-06T10:11:40;4.30;;;2.10;;
39782;SDS011;25462;51.164;17.100;2022-07-06T10:16:56;2.50;;;2.00;;
39782;SDS011;25462;51.164;17.100;2022-07-06T11:25:48;4.90;;;2.00;;
39782;SDS011;25462;51.164;17.100;2022-07-06T11:31:23;1.50;;;1.40;;
39782;SDS011;25462;51.164;17.100;2022-07-06T11:37:36;2.00;;;1.40;;
39782;SDS011;25462;51.164;17.100;2022-07-06T11:43:16;5.80;;;1.50;;
39782;SDS011;25462;51.164;17.100;2022-07-06T11:48:21;13.20;;;2.20;;
39782;SDS011;25462;51.164;17.100;2022-07-06T11:53:35;4.80;;;1.30;;
39782;SDS011;25462;51.164;17.100;2022-07-06T11:59:02;2.20;;;1.30;;
39782;SDS011;25462;51.164;17.100;2022-07-06T12:09:52;1.70;;;0.90;;
39782;SDS011;25462;51.164;17.100;2022-07-06T12:15:26;2.20;;;0.80;;
39782;SDS011;25462;51.164;17.100;2022-07-06T12:20:45;1.00;;;0.80;;
39782;SDS011;25462;51.164;17.100;2022-07-06T12:25:52;0.70;;;0.70;;
39782;SDS011;25462;51.164;17.100;2022-07-06T12:31:07;1.50;;;0.80;;
39782;SDS011;25462;51.164;17.100;2022-07-06T12:55:30;0.80;;;0.60;;
39782;SDS011;25462;51.164;17.100;2022-07-06T13:00:47;3.60;;;0.80;;
39782;SDS011;25462;51.164;17.100;2022-07-06T13:30:44;0.60;;;0.60;;
39782;SDS011;25462;51.164;17.100;2022-07-06T13:35:58;1.60;;;0.60;;
39782;SDS011;25462;51.164;17.100;2022-07-06T13:41:02;3.50;;;0.80;;
39782;SDS011;25462;51.164;17.100;2022-07-06T13:46:20;0.70;;;0.50;;
39782;SDS011;25462;51.164;17.100;2022-07-06T13:51:45;1.10;;;0.70;;
39782;SDS011;25462;51.164;17.100;2022-07-06T13:57:17;2.00;;;0.80;;
39782;SDS011;25462;51.164;17.100;2022-07-06T14:02:33;2.10;;;0.70;;
39782;SDS011;25462;51.164;17.100;2022-07-06T14:13:26;1.20;;;0.60;;
39782;SDS011;25462;51.164;17.100;2022-07-06T14:18:33;1.20;;;0.70;;
39782;SDS011;25462;51.164;17.100;2022-07-06T14:23:40;0.60;;;0.50;;
39782;SDS011;25462;51.164;17.100;2022-07-06T14:28:44;1.40;;;1.00;;
39782;SDS011;25462;51.164;17.100;2022-07-06T14:33:51;4.10;;;1.10;;
39782;SDS011;25462;51.164;17.100;2022-07-06T14:39:38;1.20;;;0.70;;
39782;SDS011;25462;51.164;17.100;2022-07-06T14:44:46;1.40;;;0.70;;
39782;SDS011;25462;51.164;17.100;2022-07-06T14:50:33;1.20;;;0.90;;
39782;SDS011;25462;51.164;17.100;2022-07-06T14:55:59;1.60;;;1.10;;
39782;SDS011;25462;51.164;17.100;2022-07-06T15:01:29;2.40;;;1.40;;
39782;SDS011;25462;51.164;17.100;2022-07-06T15:07:07;3.80;;;1.80;;
39782;SDS011;25462;51.164;17.100;2022-07-06T15:12:13;2.40;;;1.40;;
39782;SDS011;25462;51.164;17.100;2022-07-06T15:17:25;2.50;;;1.30;;
39782;SDS011;25462;51.164;17.100;2022-07-06T15:27:47;1.70;;;0.90;;
39782;SDS011;25462;51.164;17.100;2022-07-06T15:33:04;1.10;;;0.70;;
39782;SDS011;25462;51.164;17.100;2022-07-06T15:43:45;1.40;;;1.30;;
39782;SDS011;25462;51.164;17.100;2022-07-06T15:49:37;1.50;;;0.90;;
39782;SDS011;25462;51.164;17.100;2022-07-06T15:54:41;1.30;;;0.90;;
39782;SDS011;25462;51.164;17.100;2022-07-06T15:59:46;2.10;;;0.70;;
39782;SDS011;25462;51.164;17.100;2022-07-06T16:04:52;1.20;;;0.70;;
39782;SDS011;25462;51.164;17.100;2022-07-06T16:10:06;1.20;;;0.60;;
39782;SDS011;25462;51.164;17.100;2022-07-06T16:21:14;9.10;;;0.80;;
39782;SDS011;25462;51.164;17.100;2022-07-06T16:26:32;1.90;;;1.10;;
39782;SDS011;25462;51.164;17.100;2022-07-06T16:38:22;2.30;;;1.30;;
39782;SDS011;25462;51.164;17.100;2022-07-06T16:43:56;1.50;;;1.20;;
39782;SDS011;25462;51.164;17.100;2022-07-06T16:49:11;1.20;;;0.80;;
39782;SDS011;25462;51.164;17.100;2022-07-06T16:54:25;1.30;;;0.90;;
39782;SDS011;25462;51.164;17.100;2022-07-06T16:59:37;2.80;;;0.80;;
39782;SDS011;25462;51.164;17.100;2022-07-06T17:04:42;1.40;;;1.00;;
39782;SDS011;25462;51.164;17.100;2022-07-06T17:09:48;2.00;;;0.80;;
39782;SDS011;25462;51.164;17.100;2022-07-06T17:14:59;3.30;;;1.80;;
39782;SDS011;25462;51.164;17.100;2022-07-06T17:20:25;2.20;;;0.90;;
39782;SDS011;25462;51.164;17.100;2022-07-06T17:26:07;3.30;;;1.20;;
39782;SDS011;25462;51.164;17.100;2022-07-06T17:31:21;2.80;;;0.80;;
39782;SDS011;25462;51.164;17.100;2022-07-06T17:36:32;2.50;;;0.90;;
39782;SDS011;25462;51.164;17.100;2022-07-06T17:41:39;3.90;;;0.90;;
39782;SDS011;25462;51.164;17.100;2022-07-06T17:46:47;1.00;;;0.60;;
39782;SDS011;25462;51.164;17.100;2022-07-06T17:52:02;1.90;;;1.40;;
39782;SDS011;25462;51.164;17.100;2022-07-06T17:57:10;2.60;;;1.00;;
39782;SDS011;25462;51.164;17.100;2022-07-06T18:02:20;4.20;;;1.30;;
39782;SDS011;25462;51.164;17.100;2022-07-06T18:07:27;1.90;;;1.20;;
39782;SDS011;25462;51.164;17.100;2022-07-06T18:12:57;2.20;;;0.80;;
39782;SDS011;25462;51.164;17.100;2022-07-06T18:18:13;1.40;;;0.80;;
39782;SDS011;25462;51.164;17.100;2022-07-06T18:23:57;3.40;;;0.60;;
39782;SDS011;25462;51.164;17.100;2022-07-06T18:34:56;4.50;;;1.40;;
39782;SDS011;25462;51.164;17.100;2022-07-06T18:40:14;4.70;;;0.90;;
39782;SDS011;25462;51.164;17.100;2022-07-06T18:51:23;1.80;;;1.00;;
39782;SDS011;25462;51.164;17.100;2022-07-06T18:57:04;4.10;;;0.70;;
39782;SDS011;25462;51.164;17.100;2022-07-06T19:02:34;1.30;;;0.70;;
39782;SDS011;25462;51.164;17.100;2022-07-06T19:07:49;1.10;;;1.00;;
39782;SDS011;25462;51.164;17.100;2022-07-06T19:13:16;2.60;;;0.90;;
39782;SDS011;25462;51.164;17.100;2022-07-06T19:24:37;3.30;;;1.00;;
39782;SDS011;25462;51.164;17.100;2022-07-06T19:29:47;6.60;;;1.30;;
39782;SDS011;25462;51.164;17.100;2022-07-06T19:35:15;5.30;;;1.00;;
39782;SDS011;25462;51.164;17.100;2022-07-06T19:40:54;1.50;;;0.90;;
39782;SDS011;25462;51.164;17.100;2022-07-06T19:46:02;2.10;;;0.80;;
39782;SDS011;25462;51.164;17.100;2022-07-06T19:51:06;3.10;;;0.80;;
39782;SDS011;25462;51.164;17.100;2022-07-06T19:56:36;1.50;;;1.00;;
39782;SDS011;25462;51.164;17.100;2022-07-06T20:02:30;2.70;;;0.80;;
39782;SDS011;25462;51.164;17.100;2022-07-06T20:07:45;3.30;;;1.00;;
39782;SDS011;25462;51.164;17.100;2022-07-06T20:13:38;3.30;;;1.30;;
39782;SDS011;25462;51.164;17.100;2022-07-06T20:19:25;1.60;;;1.10;;
39782;SDS011;25462;51.164;17.100;2022-07-06T20:37:15;5.10;;;3.60;;
39782;SDS011;25462;51.164;17.100;2022-07-06T20:42:28;3.90;;;1.60;;
39782;SDS011;25462;51.164;17.100;2022-07-06T20:47:57;2.70;;;1.40;;
39782;SDS011;25462;51.164;17.100;2022-07-06T20:53:48;4.40;;;1.70;;
39782;SDS011;25462;51.164;17.100;2022-07-06T20:59:18;2.90;;;1.60;;
39782;SDS011;25462;51.164;17.100;2022-07-06T21:04:28;2.00;;;1.40;;
39782;SDS011;25462;51.164;17.100;2022-07-06T21:10:11;2.80;;;1.40;;
39782;SDS011;25462;51.164;17.100;2022-07-06T21:16:04;2.90;;;1.30;;
39782;SDS011;25462;51.164;17.100;2022-07-06T21:21:11;2.40;;;1.50;;
39782;SDS011;25462;51.164;17.100;2022-07-06T21:32:43;3.20;;;1.50;;
39782;SDS011;25462;51.164;17.100;2022-07-06T21:38:12;2.80;;;1.40;;
39782;SDS011;25462;51.164;17.100;2022-07-06T21:43:29;3.50;;;1.50;;
39782;SDS011;25462;51.164;17.100;2022-07-06T21:48:56;3.60;;;1.80;;
39782;SDS011;25462;51.164;17.100;2022-07-06T22:00:50;3.70;;;1.50;;
39782;SDS011;25462;51.164;17.100;2022-07-06T22:12:35;5.50;;;1.70;;
39782;SDS011;25462;51.164;17.100;2022-07-06T22:43:06;4.10;;;2.50;;
39782;SDS011;25462;51.164;17.100;2022-07-06T22:48:40;4.50;;;1.90;;
39782;SDS011;25462;51.164;17.100;2022-07-06T22:54:28;6.90;;;2.00;;
39782;SDS011;25462;51.164;17.100;2022-07-06T23:42:55;4.70;;;3.00;;
